Nogales International Airport Nogales US
ICAO: KOLS
IATA: OLS
Category: Medium
Scheduled Services: No

Elevation: 3955 ft
TransAlt. 18000 ft.

Airport Communications:
TUCSON APP DEP:125.1
ASOS:121.125
PRESCOTT RDO:122.4
CTAF/UNICOM:122.8

KOLS Zoom In..

If you have problems with the map follow the link
https://www.worldairports.se/pages/airport.php?
ICAO=KOLS

Runways:

(A) RW 03 length 7200 ft width 100 ft
---- / hdg 34

(B) RW 21 length 7200 ft width 100 ft
---- / hdg 214

Location; KOLS
Day. 13 / Time. 19.54 Zulu
* Altimeter: 30.15
* Temperature: 22° c. 71.6°f.
* Wind from: 000° Speed 00 kn.
Dewpoint: -09° c.
Visibility: 10 Statute Miles.
Clouds: Clear (automated report).

KOLS 131954Z AUTO 00000KT 10SM CLR 22/M09 A3015 RMK AO2 SLP173 T02221089


Wind - Calm.

 
 
jpsmedia worldairports.se 2019   terms of use